sensor_id;sensor_type;location;lat;lon;timestamp;temperature;humidity
33077;DHT22;38790;51.964;5.924;2022-10-23T00:00:40;11.40;99.90
33077;DHT22;38790;51.964;5.924;2022-10-23T00:03:06;11.40;99.90
33077;DHT22;38790;51.964;5.924;2022-10-23T00:05:32;11.30;99.90
33077;DHT22;38790;51.964;5.924;2022-10-23T00:07:59;11.30;99.90
33077;DHT22;38790;51.964;5.924;2022-10-23T00:10:27;11.20;99.90
33077;DHT22;38790;51.964;5.924;2022-10-23T00:12:53;11.20;99.90
33077;DHT22;38790;51.964;5.924;2022-10-23T00:15:21;11.20;99.90
33077;DHT22;38790;51.964;5.924;2022-10-23T00:17:48;11.20;99.90
33077;DHT22;38790;51.964;5.924;2022-10-23T00:20:16;11.20;99.90
33077;DHT22;38790;51.964;5.924;2022-10-23T00:22:42;11.20;99.90
33077;DHT22;38790;51.964;5.924;2022-10-23T00:25:09;11.20;99.90
33077;DHT22;38790;51.964;5.924;2022-10-23T00:27:36;11.20;99.90
33077;DHT22;38790;51.964;5.924;2022-10-23T00:30:04;11.20;99.90
33077;DHT22;38790;51.964;5.924;2022-10-23T00:32:30;11.20;99.90
33077;DHT22;38790;51.964;5.924;2022-10-23T00:34:56;11.20;99.90
33077;DHT22;38790;51.964;5.924;2022-10-23T00:37:22;11.10;99.90
33077;DHT22;38790;51.964;5.924;2022-10-23T00:39:48;11.20;99.90
33077;DHT22;38790;51.964;5.924;2022-10-23T00:42:19;11.10;99.90
33077;DHT22;38790;51.964;5.924;2022-10-23T00:47:12;11.10;99.90
33077;DHT22;38790;51.964;5.924;2022-10-23T00:49:39;11.10;99.90
33077;DHT22;38790;51.964;5.924;2022-10-23T00:52:07;11.00;99.90
33077;DHT22;38790;51.964;5.924;2022-10-23T00:54:40;11.00;99.90
33077;DHT22;38790;51.964;5.924;2022-10-23T00:57:11;11.00;99.90
33077;DHT22;38790;51.964;5.924;2022-10-23T00:59:38;11.00;99.90
33077;DHT22;38790;51.964;5.924;2022-10-23T01:02:04;10.90;99.90
33077;DHT22;38790;51.964;5.924;2022-10-23T01:04:31;10.90;99.90
33077;DHT22;38790;51.964;5.924;2022-10-23T01:07:20;10.90;99.90
33077;DHT22;38790;51.964;5.924;2022-10-23T01:12:43;10.90;99.90
33077;DHT22;38790;51.964;5.924;2022-10-23T01:15:29;10.90;99.90
33077;DHT22;38790;51.964;5.924;2022-10-23T01:18:13;10.90;99.90
33077;DHT22;38790;51.964;5.924;2022-10-23T01:20:44;11.00;99.90
33077;DHT22;38790;51.964;5.924;2022-10-23T01:31:57;10.90;99.90
33077;DHT22;38790;51.964;5.924;2022-10-23T01:34:54;10.90;99.90
33077;DHT22;38790;51.964;5.924;2022-10-23T01:37:31;10.90;99.90
33077;DHT22;38790;51.964;5.924;2022-10-23T01:40:03;10.80;99.90
33077;DHT22;38790;51.964;5.924;2022-10-23T01:42:36;10.80;99.90
33077;DHT22;38790;51.964;5.924;2022-10-23T01:45:12;10.80;99.90
33077;DHT22;38790;51.964;5.924;2022-10-23T01:47:41;10.80;99.90
33077;DHT22;38790;51.964;5.924;2022-10-23T01:50:09;10.80;99.90
33077;DHT22;38790;51.964;5.924;2022-10-23T01:52:37;10.90;99.90
33077;DHT22;38790;51.964;5.924;2022-10-23T01:55:04;11.00;99.90
33077;DHT22;38790;51.964;5.924;2022-10-23T01:57:33;11.00;99.90
33077;DHT22;38790;51.964;5.924;2022-10-23T02:00:07;11.00;99.90
33077;DHT22;38790;51.964;5.924;2022-10-23T02:02:35;10.90;99.90
33077;DHT22;38790;51.964;5.924;2022-10-23T02:05:04;10.90;99.90
33077;DHT22;38790;51.964;5.924;2022-10-23T02:07:31;10.90;99.90
33077;DHT22;38790;51.964;5.924;2022-10-23T02:09:58;10.80;99.90
33077;DHT22;38790;51.964;5.924;2022-10-23T02:20:37;10.70;99.90
33077;DHT22;38790;51.964;5.924;2022-10-23T02:23:19;10.70;99.90
33077;DHT22;38790;51.964;5.924;2022-10-23T02:25:52;10.70;99.90
33077;DHT22;38790;51.964;5.924;2022-10-23T02:28:24;10.70;99.90
33077;DHT22;38790;51.964;5.924;2022-10-23T02:30:54;10.60;99.90
33077;DHT22;38790;51.964;5.924;2022-10-23T02:33:22;10.60;99.90
33077;DHT22;38790;51.964;5.924;2022-10-23T02:35:49;10.60;99.90
33077;DHT22;38790;51.964;5.924;2022-10-23T02:38:35;10.60;99.90
33077;DHT22;38790;51.964;5.924;2022-10-23T02:44:02;10.60;99.90
33077;DHT22;38790;51.964;5.924;2022-10-23T02:46:58;10.60;99.90
33077;DHT22;38790;51.964;5.924;2022-10-23T02:49:37;10.70;99.90
33077;DHT22;38790;51.964;5.924;2022-10-23T02:52:17;10.70;99.90
33077;DHT22;38790;51.964;5.924;2022-10-23T02:55:04;10.80;99.90
33077;DHT22;38790;51.964;5.924;2022-10-23T02:57:42;10.70;99.90
33077;DHT22;38790;51.964;5.924;2022-10-23T03:00:15;10.70;99.90
33077;DHT22;38790;51.964;5.924;2022-10-23T03:03:05;10.60;99.90
33077;DHT22;38790;51.964;5.924;2022-10-23T03:05:37;10.60;99.90
33077;DHT22;38790;51.964;5.924;2022-10-23T03:08:08;10.50;99.90
33077;DHT22;38790;51.964;5.924;2022-10-23T03:10:34;10.50;99.90
33077;DHT22;38790;51.964;5.924;2022-10-23T03:13:01;10.50;99.90
33077;DHT22;38790;51.964;5.924;2022-10-23T03:15:27;10.50;99.90
33077;DHT22;38790;51.964;5.924;2022-10-23T03:17:53;10.50;99.90
33077;DHT22;38790;51.964;5.924;2022-10-23T03:20:20;10.50;99.90
33077;DHT22;38790;51.964;5.924;2022-10-23T03:22:46;10.50;99.90
33077;DHT22;38790;51.964;5.924;2022-10-23T03:25:12;10.50;99.90
33077;DHT22;38790;51.964;5.924;2022-10-23T03:27:38;10.50;99.90
33077;DHT22;38790;51.964;5.924;2022-10-23T03:30:05;10.50;99.90
33077;DHT22;38790;51.964;5.924;2022-10-23T03:32:32;10.60;99.90
33077;DHT22;38790;51.964;5.924;2022-10-23T03:34:58;10.50;99.90
33077;DHT22;38790;51.964;5.924;2022-10-23T03:37:24;10.70;99.90
33077;DHT22;38790;51.964;5.924;2022-10-23T03:39:50;10.70;99.90
33077;DHT22;38790;51.964;5.924;2022-10-23T03:42:16;10.70;99.90
33077;DHT22;38790;51.964;5.924;2022-10-23T03:44:43;10.70;99.90
33077;DHT22;38790;51.964;5.924;2022-10-23T03:47:09;10.70;99.90
33077;DHT22;38790;51.964;5.924;2022-10-23T03:49:38;10.80;99.90
33077;DHT22;38790;51.964;5.924;2022-10-23T03:52:05;10.80;99.90
33077;DHT22;38790;51.964;5.924;2022-10-23T03:54:31;10.70;99.90
33077;DHT22;38790;51.964;5.924;2022-10-23T03:56:58;10.60;99.90
33077;DHT22;38790;51.964;5.924;2022-10-23T03:59:25;10.70;99.90
33077;DHT22;38790;51.964;5.924;2022-10-23T04:01:51;10.70;99.90
33077;DHT22;38790;51.964;5.924;2022-10-23T04:04:17;10.70;99.90
33077;DHT22;38790;51.964;5.924;2022-10-23T04:06:44;10.80;99.90
33077;DHT22;38790;51.964;5.924;2022-10-23T04:09:10;10.80;99.90
33077;DHT22;38790;51.964;5.924;2022-10-23T04:11:36;10.80;99.90
33077;DHT22;38790;51.964;5.924;2022-10-23T04:14:02;10.90;99.90
33077;DHT22;38790;51.964;5.924;2022-10-23T04:16:28;10.80;99.90
33077;DHT22;38790;51.964;5.924;2022-10-23T04:18:54;10.90;99.90
33077;DHT22;38790;51.964;5.924;2022-10-23T04:21:21;11.00;99.90
33077;DHT22;38790;51.964;5.924;2022-10-23T04:23:47;11.10;99.90
33077;DHT22;38790;51.964;5.924;2022-10-23T04:26:13;11.10;99.90
33077;DHT22;38790;51.964;5.924;2022-10-23T04:28:39;11.10;99.90
33077;DHT22;38790;51.964;5.924;2022-10-23T04:31:05;11.20;99.90
33077;DHT22;38790;51.964;5.924;2022-10-23T04:33:31;11.20;99.90
33077;DHT22;38790;51.964;5.924;2022-10-23T04:35:57;11.20;99.90
33077;DHT22;38790;51.964;5.924;2022-10-23T04:38:24;11.20;99.90
33077;DHT22;38790;51.964;5.924;2022-10-23T04:40:51;11.20;99.90
33077;DHT22;38790;51.964;5.924;2022-10-23T04:43:17;11.30;99.90
33077;DHT22;38790;51.964;5.924;2022-10-23T04:45:43;11.30;99.90
33077;DHT22;38790;51.964;5.924;2022-10-23T04:48:09;11.30;99.90
33077;DHT22;38790;51.964;5.924;2022-10-23T04:50:35;11.40;99.90
33077;DHT22;38790;51.964;5.924;2022-10-23T04:53:01;11.30;99.90
33077;DHT22;38790;51.964;5.924;2022-10-23T04:55:27;11.40;99.90
33077;DHT22;38790;51.964;5.924;2022-10-23T04:57:53;11.40;99.90
33077;DHT22;38790;51.964;5.924;2022-10-23T05:00:20;11.40;99.90
33077;DHT22;38790;51.964;5.924;2022-10-23T05:02:46;11.40;99.90
33077;DHT22;38790;51.964;5.924;2022-10-23T05:05:12;11.40;99.90
33077;DHT22;38790;51.964;5.924;2022-10-23T05:07:38;11.40;99.90
33077;DHT22;38790;51.964;5.924;2022-10-23T05:10:05;11.40;99.90
33077;DHT22;38790;51.964;5.924;2022-10-23T05:12:31;11.40;99.90
33077;DHT22;38790;51.964;5.924;2022-10-23T05:14:58;11.40;99.90
33077;DHT22;38790;51.964;5.924;2022-10-23T05:17:34;11.50;99.90
33077;DHT22;38790;51.964;5.924;2022-10-23T05:20:06;11.60;99.90
33077;DHT22;38790;51.964;5.924;2022-10-23T05:22:36;11.60;99.90
33077;DHT22;38790;51.964;5.924;2022-10-23T05:25:03;11.60;99.90
33077;DHT22;38790;51.964;5.924;2022-10-23T05:27:30;11.60;99.90
33077;DHT22;38790;51.964;5.924;2022-10-23T05:29:56;11.60;99.90
33077;DHT22;38790;51.964;5.924;2022-10-23T05:32:24;11.60;99.90
33077;DHT22;38790;51.964;5.924;2022-10-23T05:34:50;11.60;99.90
33077;DHT22;38790;51.964;5.924;2022-10-23T05:37:17;11.60;99.90
33077;DHT22;38790;51.964;5.924;2022-10-23T05:39:43;11.60;99.90
33077;DHT22;38790;51.964;5.924;2022-10-23T05:42:12;11.60;99.90
33077;DHT22;38790;51.964;5.924;2022-10-23T05:44:46;11.60;99.90
33077;DHT22;38790;51.964;5.924;2022-10-23T05:47:12;11.60;99.90
33077;DHT22;38790;51.964;5.924;2022-10-23T05:49:39;11.60;99.90
33077;DHT22;38790;51.964;5.924;2022-10-23T05:52:17;11.70;99.90
33077;DHT22;38790;51.964;5.924;2022-10-23T05:54:45;11.70;99.90
33077;DHT22;38790;51.964;5.924;2022-10-23T05:57:11;11.70;99.90
33077;DHT22;38790;51.964;5.924;2022-10-23T05:59:37;11.70;99.90
33077;DHT22;38790;51.964;5.924;2022-10-23T06:02:03;11.70;99.90
33077;DHT22;38790;51.964;5.924;2022-10-23T06:04:29;11.70;99.90
33077;DHT22;38790;51.964;5.924;2022-10-23T06:07:01;11.70;99.90
33077;DHT22;38790;51.964;5.924;2022-10-23T06:09:28;11.70;99.90
33077;DHT22;38790;51.964;5.924;2022-10-23T06:11:56;11.70;99.90
33077;DHT22;38790;51.964;5.924;2022-10-23T06:14:23;11.70;99.90
33077;DHT22;38790;51.964;5.924;2022-10-23T06:16:49;11.60;99.90
33077;DHT22;38790;51.964;5.924;2022-10-23T06:19:15;11.70;99.90
33077;DHT22;38790;51.964;5.924;2022-10-23T06:21:41;11.70;99.90
33077;DHT22;38790;51.964;5.924;2022-10-23T06:24:08;11.70;99.90
33077;DHT22;38790;51.964;5.924;2022-10-23T06:26:34;11.70;99.90
33077;DHT22;38790;51.964;5.924;2022-10-23T06:29:00;11.70;99.90
33077;DHT22;38790;51.964;5.924;2022-10-23T06:31:26;11.70;99.90
33077;DHT22;38790;51.964;5.924;2022-10-23T06:33:54;11.70;99.90
33077;DHT22;38790;51.964;5.924;2022-10-23T06:36:21;11.80;99.90
33077;DHT22;38790;51.964;5.924;2022-10-23T06:38:47;11.80;99.90
33077;DHT22;38790;51.964;5.924;2022-10-23T06:41:19;11.80;99.90
33077;DHT22;38790;51.964;5.924;2022-10-23T06:43:47;11.80;99.90
33077;DHT22;38790;51.964;5.924;2022-10-23T06:46:13;11.90;99.90
33077;DHT22;38790;51.964;5.924;2022-10-23T06:48:43;11.90;99.90
33077;DHT22;38790;51.964;5.924;2022-10-23T06:51:11;11.90;99.90
33077;DHT22;38790;51.964;5.924;2022-10-23T06:53:38;11.90;99.90
33077;DHT22;38790;51.964;5.924;2022-10-23T06:56:06;12.00;99.90
33077;DHT22;38790;51.964;5.924;2022-10-23T06:58:34;12.10;99.90
33077;DHT22;38790;51.964;5.924;2022-10-23T07:01:02;12.20;99.90
33077;DHT22;38790;51.964;5.924;2022-10-23T07:03:28;12.30;99.90
33077;DHT22;38790;51.964;5.924;2022-10-23T07:05:54;12.40;99.90
33077;DHT22;38790;51.964;5.924;2022-10-23T07:08:20;12.40;99.90
33077;DHT22;38790;51.964;5.924;2022-10-23T07:10:46;12.40;99.90
33077;DHT22;38790;51.964;5.924;2022-10-23T07:13:14;12.50;99.90
33077;DHT22;38790;51.964;5.924;2022-10-23T07:15:40;12.50;99.90
33077;DHT22;38790;51.964;5.924;2022-10-23T07:18:06;12.60;99.90
33077;DHT22;38790;51.964;5.924;2022-10-23T07:20:42;12.60;99.90
33077;DHT22;38790;51.964;5.924;2022-10-23T07:23:10;12.60;99.90
33077;DHT22;38790;51.964;5.924;2022-10-23T07:25:37;12.70;99.90
33077;DHT22;38790;51.964;5.924;2022-10-23T07:28:03;12.70;99.90
33077;DHT22;38790;51.964;5.924;2022-10-23T07:30:30;12.70;99.90
33077;DHT22;38790;51.964;5.924;2022-10-23T07:32:56;12.80;99.90
33077;DHT22;38790;51.964;5.924;2022-10-23T07:35:22;12.80;99.90
33077;DHT22;38790;51.964;5.924;2022-10-23T07:37:48;12.80;99.90
33077;DHT22;38790;51.964;5.924;2022-10-23T07:40:15;12.80;99.90
33077;DHT22;38790;51.964;5.924;2022-10-23T07:42:42;12.80;99.90
33077;DHT22;38790;51.964;5.924;2022-10-23T07:45:08;12.80;99.90
33077;DHT22;38790;51.964;5.924;2022-10-23T07:47:34;12.80;99.90
33077;DHT22;38790;51.964;5.924;2022-10-23T07:50:00;12.90;99.90
33077;DHT22;38790;51.964;5.924;2022-10-23T07:52:26;12.90;99.90
33077;DHT22;38790;51.964;5.924;2022-10-23T07:54:53;13.00;99.90
33077;DHT22;38790;51.964;5.924;2022-10-23T07:57:19;13.00;99.90
33077;DHT22;38790;51.964;5.924;2022-10-23T07:59:46;13.10;99.90
33077;DHT22;38790;51.964;5.924;2022-10-23T08:02:13;13.10;99.90
33077;DHT22;38790;51.964;5.924;2022-10-23T08:04:39;13.10;99.90
33077;DHT22;38790;51.964;5.924;2022-10-23T08:07:05;13.10;99.90
33077;DHT22;38790;51.964;5.924;2022-10-23T08:09:31;13.10;99.90
33077;DHT22;38790;51.964;5.924;2022-10-23T08:12:00;13.20;99.90
33077;DHT22;38790;51.964;5.924;2022-10-23T08:14:26;13.20;99.90
33077;DHT22;38790;51.964;5.924;2022-10-23T08:16:52;13.20;99.90
33077;DHT22;38790;51.964;5.924;2022-10-23T08:19:18;13.30;99.90
33077;DHT22;38790;51.964;5.924;2022-10-23T08:21:44;13.20;99.90
33077;DHT22;38790;51.964;5.924;2022-10-23T08:24:11;13.30;99.90
33077;DHT22;38790;51.964;5.924;2022-10-23T08:26:39;13.30;99.90
33077;DHT22;38790;51.964;5.924;2022-10-23T08:29:06;13.30;99.90
33077;DHT22;38790;51.964;5.924;2022-10-23T08:31:32;13.30;99.90
33077;DHT22;38790;51.964;5.924;2022-10-23T08:33:58;13.30;99.90
33077;DHT22;38790;51.964;5.924;2022-10-23T08:36:26;13.40;99.90
33077;DHT22;38790;51.964;5.924;2022-10-23T08:38:54;13.40;99.90
33077;DHT22;38790;51.964;5.924;2022-10-23T08:41:35;13.50;99.90
33077;DHT22;38790;51.964;5.924;2022-10-23T08:47:17;13.50;99.90
33077;DHT22;38790;51.964;5.924;2022-10-23T08:49:54;13.60;99.90
33077;DHT22;38790;51.964;5.924;2022-10-23T08:57:38;13.80;99.90
33077;DHT22;38790;51.964;5.924;2022-10-23T09:00:13;13.80;99.90
33077;DHT22;38790;51.964;5.924;2022-10-23T09:02:45;13.90;99.90
33077;DHT22;38790;51.964;5.924;2022-10-23T09:05:36;13.90;99.90
33077;DHT22;38790;51.964;5.924;2022-10-23T09:08:25;14.00;99.90
33077;DHT22;38790;51.964;5.924;2022-10-23T09:11:15;14.00;99.90
33077;DHT22;38790;51.964;5.924;2022-10-23T09:19:21;14.30;99.90
33077;DHT22;38790;51.964;5.924;2022-10-23T09:21:49;14.30;99.90
33077;DHT22;38790;51.964;5.924;2022-10-23T09:24:17;14.30;99.90
33077;DHT22;38790;51.964;5.924;2022-10-23T09:26:45;14.30;99.90
33077;DHT22;38790;51.964;5.924;2022-10-23T09:31:52;14.20;99.90
33077;DHT22;38790;51.964;5.924;2022-10-23T09:34:22;14.30;99.90
33077;DHT22;38790;51.964;5.924;2022-10-23T09:36:54;14.30;99.90
33077;DHT22;38790;51.964;5.924;2022-10-23T09:39:24;14.30;99.90
33077;DHT22;38790;51.964;5.924;2022-10-23T09:41:51;14.30;99.90
33077;DHT22;38790;51.964;5.924;2022-10-23T09:44:21;14.40;99.90
33077;DHT22;38790;51.964;5.924;2022-10-23T09:49:27;14.40;99.90
33077;DHT22;38790;51.964;5.924;2022-10-23T09:52:01;14.50;99.90
33077;DHT22;38790;51.964;5.924;2022-10-23T09:54:32;14.40;99.90
33077;DHT22;38790;51.964;5.924;2022-10-23T09:57:14;14.50;99.90
33077;DHT22;38790;51.964;5.924;2022-10-23T09:59:48;14.50;99.90
33077;DHT22;38790;51.964;5.924;2022-10-23T10:02:23;14.60;99.90
33077;DHT22;38790;51.964;5.924;2022-10-23T10:04:51;14.70;99.90
33077;DHT22;38790;51.964;5.924;2022-10-23T10:07:23;14.70;99.90
33077;DHT22;38790;51.964;5.924;2022-10-23T10:09:52;14.70;99.90
33077;DHT22;38790;51.964;5.924;2022-10-23T10:17:56;14.90;99.90
33077;DHT22;38790;51.964;5.924;2022-10-23T10:20:36;14.90;99.90
33077;DHT22;38790;51.964;5.924;2022-10-23T10:37:28;15.20;99.90
33077;DHT22;38790;51.964;5.924;2022-10-23T10:40:06;15.30;99.90
33077;DHT22;38790;51.964;5.924;2022-10-23T10:50:54;15.30;99.90
33077;DHT22;38790;51.964;5.924;2022-10-23T10:56:29;15.30;99.90
33077;DHT22;38790;51.964;5.924;2022-10-23T10:59:03;15.40;99.90
33077;DHT22;38790;51.964;5.924;2022-10-23T11:01:38;15.40;99.90
33077;DHT22;38790;51.964;5.924;2022-10-23T11:06:53;15.50;99.90
33077;DHT22;38790;51.964;5.924;2022-10-23T11:09:26;15.60;99.90
33077;DHT22;38790;51.964;5.924;2022-10-23T11:11:53;15.70;99.90
33077;DHT22;38790;51.964;5.924;2022-10-23T11:14:24;15.70;99.90
33077;DHT22;38790;51.964;5.924;2022-10-23T11:17:15;15.80;99.90
33077;DHT22;38790;51.964;5.924;2022-10-23T11:22:32;15.90;99.90
33077;DHT22;38790;51.964;5.924;2022-10-23T11:25:42;15.90;99.90
33077;DHT22;38790;51.964;5.924;2022-10-23T11:31:17;16.00;99.90
33077;DHT22;38790;51.964;5.924;2022-10-23T11:34:00;16.20;99.90
33077;DHT22;38790;51.964;5.924;2022-10-23T11:36:57;16.20;99.90
33077;DHT22;38790;51.964;5.924;2022-10-23T11:39:31;16.30;99.90
33077;DHT22;38790;51.964;5.924;2022-10-23T11:42:10;16.40;99.90
33077;DHT22;38790;51.964;5.924;2022-10-23T11:44:49;16.40;99.90
33077;DHT22;38790;51.964;5.924;2022-10-23T11:50:02;16.50;99.90
33077;DHT22;38790;51.964;5.924;2022-10-23T11:52:28;16.60;99.90
33077;DHT22;38790;51.964;5.924;2022-10-23T11:57:28;16.70;99.90
33077;DHT22;38790;51.964;5.924;2022-10-23T11:59:55;16.70;99.90
33077;DHT22;38790;51.964;5.924;2022-10-23T12:05:01;16.70;99.90
33077;DHT22;38790;51.964;5.924;2022-10-23T12:07:32;16.80;99.90
33077;DHT22;38790;51.964;5.924;2022-10-23T12:10:01;16.80;99.90
33077;DHT22;38790;51.964;5.924;2022-10-23T12:12:32;16.90;99.90
33077;DHT22;38790;51.964;5.924;2022-10-23T12:17:39;17.10;99.90
33077;DHT22;38790;51.964;5.924;2022-10-23T12:23:17;17.20;99.90
33077;DHT22;38790;51.964;5.924;2022-10-23T12:31:26;17.30;99.90
33077;DHT22;38790;51.964;5.924;2022-10-23T12:34:00;17.30;99.90
33077;DHT22;38790;51.964;5.924;2022-10-23T12:37:02;17.30;99.90
33077;DHT22;38790;51.964;5.924;2022-10-23T12:39:34;17.30;99.90
33077;DHT22;38790;51.964;5.924;2022-10-23T12:42:20;17.30;99.90
33077;DHT22;38790;51.964;5.924;2022-10-23T12:44:59;17.30;99.90
33077;DHT22;38790;51.964;5.924;2022-10-23T12:47:27;17.30;99.90
33077;DHT22;38790;51.964;5.924;2022-10-23T12:49:54;17.40;99.90
33077;DHT22;38790;51.964;5.924;2022-10-23T12:52:21;17.40;99.90
33077;DHT22;38790;51.964;5.924;2022-10-23T12:54:51;17.40;99.90
33077;DHT22;38790;51.964;5.924;2022-10-23T12:59:47;17.40;99.90
33077;DHT22;38790;51.964;5.924;2022-10-23T13:02:23;17.50;99.90
33077;DHT22;38790;51.964;5.924;2022-10-23T13:04:51;17.50;99.90
33077;DHT22;38790;51.964;5.924;2022-10-23T13:07:22;17.50;99.90
33077;DHT22;38790;51.964;5.924;2022-10-23T13:09:49;17.50;99.90
33077;DHT22;38790;51.964;5.924;2022-10-23T13:12:30;17.60;99.90
33077;DHT22;38790;51.964;5.924;2022-10-23T13:15:11;17.60;99.90
33077;DHT22;38790;51.964;5.924;2022-10-23T13:17:44;17.60;99.90
33077;DHT22;38790;51.964;5.924;2022-10-23T13:20:23;17.60;99.90
33077;DHT22;38790;51.964;5.924;2022-10-23T13:23:10;17.60;99.90
33077;DHT22;38790;51.964;5.924;2022-10-23T13:25:38;17.60;99.90
33077;DHT22;38790;51.964;5.924;2022-10-23T13:30:39;17.60;99.90
33077;DHT22;38790;51.964;5.924;2022-10-23T13:33:21;17.60;99.90
33077;DHT22;38790;51.964;5.924;2022-10-23T13:35:55;17.60;99.90
33077;DHT22;38790;51.964;5.924;2022-10-23T13:41:00;17.70;99.90
33077;DHT22;38790;51.964;5.924;2022-10-23T13:43:27;17.70;99.90
33077;DHT22;38790;51.964;5.924;2022-10-23T13:45:56;17.70;99.90
33077;DHT22;38790;51.964;5.924;2022-10-23T13:48:23;17.70;99.90
33077;DHT22;38790;51.964;5.924;2022-10-23T13:50:49;17.70;99.90
33077;DHT22;38790;51.964;5.924;2022-10-23T13:53:16;17.70;99.90
33077;DHT22;38790;51.964;5.924;2022-10-23T13:55:44;17.70;99.90
33077;DHT22;38790;51.964;5.924;2022-10-23T13:58:12;17.70;99.90
33077;DHT22;38790;51.964;5.924;2022-10-23T14:00:38;17.70;99.90
33077;DHT22;38790;51.964;5.924;2022-10-23T14:03:05;17.70;99.90
33077;DHT22;38790;51.964;5.924;2022-10-23T14:05:31;17.70;99.90
33077;DHT22;38790;51.964;5.924;2022-10-23T14:07:57;17.70;99.90
33077;DHT22;38790;51.964;5.924;2022-10-23T14:10:23;17.60;99.90
33077;DHT22;38790;51.964;5.924;2022-10-23T14:12:49;17.60;99.90
33077;DHT22;38790;51.964;5.924;2022-10-23T14:15:20;17.60;99.90
33077;DHT22;38790;51.964;5.924;2022-10-23T14:17:47;17.60;99.90
33077;DHT22;38790;51.964;5.924;2022-10-23T14:20:13;17.60;99.90
33077;DHT22;38790;51.964;5.924;2022-10-23T14:22:39;17.60;99.90
33077;DHT22;38790;51.964;5.924;2022-10-23T14:25:05;17.60;99.90
33077;DHT22;38790;51.964;5.924;2022-10-23T14:27:31;17.60;99.90
33077;DHT22;38790;51.964;5.924;2022-10-23T14:29:57;17.60;99.90
33077;DHT22;38790;51.964;5.924;2022-10-23T14:32:24;17.60;99.90
33077;DHT22;38790;51.964;5.924;2022-10-23T14:34:52;17.60;99.90
33077;DHT22;38790;51.964;5.924;2022-10-23T14:37:19;17.60;99.90
33077;DHT22;38790;51.964;5.924;2022-10-23T14:39:45;17.60;99.90
33077;DHT22;38790;51.964;5.924;2022-10-23T14:42:12;17.60;99.90
33077;DHT22;38790;51.964;5.924;2022-10-23T14:44:38;17.60;99.90
33077;DHT22;38790;51.964;5.924;2022-10-23T14:47:05;17.60;99.90
33077;DHT22;38790;51.964;5.924;2022-10-23T14:49:31;17.60;99.90
33077;DHT22;38790;51.964;5.924;2022-10-23T14:51:58;17.50;99.90
33077;DHT22;38790;51.964;5.924;2022-10-23T14:54:24;17.50;99.90
33077;DHT22;38790;51.964;5.924;2022-10-23T14:56:50;17.50;99.90
33077;DHT22;38790;51.964;5.924;2022-10-23T14:59:16;17.50;99.90
33077;DHT22;38790;51.964;5.924;2022-10-23T15:01:43;17.50;99.90
33077;DHT22;38790;51.964;5.924;2022-10-23T15:04:10;17.40;99.90
33077;DHT22;38790;51.964;5.924;2022-10-23T15:06:39;17.40;99.90
33077;DHT22;38790;51.964;5.924;2022-10-23T15:09:06;17.30;99.90
33077;DHT22;38790;51.964;5.924;2022-10-23T15:11:32;17.30;99.90
33077;DHT22;38790;51.964;5.924;2022-10-23T15:13:59;17.30;99.90
33077;DHT22;38790;51.964;5.924;2022-10-23T15:16:26;17.20;99.90
33077;DHT22;38790;51.964;5.924;2022-10-23T15:18:52;17.20;99.90
33077;DHT22;38790;51.964;5.924;2022-10-23T15:21:18;17.10;99.90
33077;DHT22;38790;51.964;5.924;2022-10-23T15:23:45;17.10;99.90
33077;DHT22;38790;51.964;5.924;2022-10-23T15:26:17;17.10;99.90
33077;DHT22;38790;51.964;5.924;2022-10-23T15:28:56;17.10;99.90
33077;DHT22;38790;51.964;5.924;2022-10-23T15:33:58;17.00;99.90
33077;DHT22;38790;51.964;5.924;2022-10-23T15:36:25;17.10;99.90
33077;DHT22;38790;51.964;5.924;2022-10-23T15:38:51;17.00;99.90
33077;DHT22;38790;51.964;5.924;2022-10-23T15:41:29;17.00;99.90
33077;DHT22;38790;51.964;5.924;2022-10-23T15:43:56;17.00;99.90
33077;DHT22;38790;51.964;5.924;2022-10-23T15:46:22;17.00;99.90
33077;DHT22;38790;51.964;5.924;2022-10-23T15:48:48;16.90;99.90
33077;DHT22;38790;51.964;5.924;2022-10-23T15:51:15;16.80;99.90
33077;DHT22;38790;51.964;5.924;2022-10-23T15:53:41;16.80;99.90
33077;DHT22;38790;51.964;5.924;2022-10-23T15:56:07;16.80;99.90
33077;DHT22;38790;51.964;5.924;2022-10-23T15:58:33;16.70;99.90
33077;DHT22;38790;51.964;5.924;2022-10-23T16:01:03;16.70;99.90
33077;DHT22;38790;51.964;5.924;2022-10-23T16:03:35;16.60;99.90
33077;DHT22;38790;51.964;5.924;2022-10-23T16:06:07;16.70;99.90
33077;DHT22;38790;51.964;5.924;2022-10-23T16:08:33;16.60;99.90
33077;DHT22;38790;51.964;5.924;2022-10-23T16:10:59;16.50;99.90
33077;DHT22;38790;51.964;5.924;2022-10-23T16:13:26;16.50;99.90
33077;DHT22;38790;51.964;5.924;2022-10-23T16:15:52;16.70;99.90
33077;DHT22;38790;51.964;5.924;2022-10-23T16:18:22;16.60;99.90
33077;DHT22;38790;51.964;5.924;2022-10-23T16:20:48;16.60;99.90
33077;DHT22;38790;51.964;5.924;2022-10-23T16:23:20;16.40;99.90
33077;DHT22;38790;51.964;5.924;2022-10-23T16:25:46;16.40;99.90
33077;DHT22;38790;51.964;5.924;2022-10-23T16:28:12;16.30;99.90
33077;DHT22;38790;51.964;5.924;2022-10-23T16:30:42;16.30;99.90
33077;DHT22;38790;51.964;5.924;2022-10-23T16:33:08;16.30;99.90
33077;DHT22;38790;51.964;5.924;2022-10-23T16:35:35;16.30;99.90
33077;DHT22;38790;51.964;5.924;2022-10-23T16:38:01;16.20;99.90
33077;DHT22;38790;51.964;5.924;2022-10-23T16:40:28;16.20;99.90
33077;DHT22;38790;51.964;5.924;2022-10-23T16:42:56;16.20;99.90
33077;DHT22;38790;51.964;5.924;2022-10-23T16:45:22;16.20;99.90
33077;DHT22;38790;51.964;5.924;2022-10-23T16:47:48;16.20;99.90
33077;DHT22;38790;51.964;5.924;2022-10-23T16:50:15;16.20;99.90
33077;DHT22;38790;51.964;5.924;2022-10-23T16:52:41;16.10;99.90
33077;DHT22;38790;51.964;5.924;2022-10-23T16:55:07;16.10;99.90
33077;DHT22;38790;51.964;5.924;2022-10-23T16:57:35;16.00;99.90
33077;DHT22;38790;51.964;5.924;2022-10-23T17:00:01;16.00;99.90
33077;DHT22;38790;51.964;5.924;2022-10-23T17:02:27;15.90;99.90
33077;DHT22;38790;51.964;5.924;2022-10-23T17:04:53;15.90;99.90
33077;DHT22;38790;51.964;5.924;2022-10-23T17:07:19;15.80;99.90
33077;DHT22;38790;51.964;5.924;2022-10-23T17:09:46;15.90;99.90
33077;DHT22;38790;51.964;5.924;2022-10-23T17:12:13;16.00;99.90
33077;DHT22;38790;51.964;5.924;2022-10-23T17:14:39;16.10;99.90
33077;DHT22;38790;51.964;5.924;2022-10-23T17:17:05;16.20;99.90
33077;DHT22;38790;51.964;5.924;2022-10-23T17:19:32;16.20;99.90
33077;DHT22;38790;51.964;5.924;2022-10-23T17:21:58;16.30;99.90
33077;DHT22;38790;51.964;5.924;2022-10-23T17:24:25;16.30;99.90
33077;DHT22;38790;51.964;5.924;2022-10-23T17:26:51;16.40;99.90
33077;DHT22;38790;51.964;5.924;2022-10-23T17:29:19;16.30;99.90
33077;DHT22;38790;51.964;5.924;2022-10-23T17:31:48;16.30;99.90
33077;DHT22;38790;51.964;5.924;2022-10-23T17:34:20;16.30;99.90
33077;DHT22;38790;51.964;5.924;2022-10-23T17:36:50;16.30;99.90